WetterOnline ( https://www.wetteronline.de )

Wetter aktuell Neuenkirchen

Aktuelles Wetter: Cuxhaven (12m)

6-stündlich | Neueste Meldungen
Ortszeit Temperatur Wetter
Do, 22.10. 8:00 14.0° C bewölkt
Do, 22.10. 2:00 14.8° C bedeckt
Mi, 21.10. 20:00 15.8° C bedeckt
Mi, 21.10. 14:00 12.7° C Sprühregen
Mi, 21.10. 8:00 12.6° C Sprühregen
Mi, 21.10. 2:00 13.6° C bewölkt
Di, 20.10. 20:00 11.6° C bewölkt
Di, 20.10. 14:00 10.1° C bedeckt
Ortszeit Temperatur Wetter
Do, 22.10. 12:00 15.5° C leicht bewölkt
Do, 22.10. 11:40 15.3° C leicht bewölkt
Do, 22.10. 11:30 15.4° C leicht bewölkt
Do, 22.10. 11:20 15.4° C fast wolkenlos
Do, 22.10. 11:10 15.5° C leicht bewölkt
Do, 22.10. 11:00 15.0° C fast wolkenlos
Do, 22.10. 10:50 15.0° C wolkenlos
Do, 22.10. 10:30 14.7° C wolkenlos
Do, 22.10. 10:00 14.4° C wolkenlos
Do, 22.10. 9:30 13.9° C wolkenlos
Do, 22.10. 9:00 13.8° C fast wolkenlos
Do, 22.10. 8:30 14.1° C bewölkt
Ortszeit Relative Feuchte Sichtweite
Do, 22.10. 8:00 86% 40 km
Do, 22.10. 2:00 82% 35 km
Mi, 21.10. 20:00 75% 45 km
Mi, 21.10. 14:00 93% 6 km
Mi, 21.10. 8:00 94% 10 km
Mi, 21.10. 2:00 89% 13 km
Di, 20.10. 20:00 87% 22 km
Di, 20.10. 14:00 73% 30 km
Ortszeit Relative Feuchte Sichtweite
Do, 22.10. 12:00 76% 50 km
Do, 22.10. 11:40 77% -
Do, 22.10. 11:30 76% 45 km
Do, 22.10. 11:20 76% -
Do, 22.10. 11:10 77% -
Do, 22.10. 11:00 79% 45 km
Do, 22.10. 10:50 79% -
Do, 22.10. 10:30 78% 50 km
Do, 22.10. 10:00 77% 45 km
Do, 22.10. 9:30 80% 45 km
Do, 22.10. 9:00 83% 50 km
Do, 22.10. 8:30 85% 45 km
Ortszeit Niederschlagsmenge Niederschlagsart
Do, 22.10. 8:00 0.1 l/m2 in 12 Std. -
Do, 22.10. 2:00 0.1 l/m2 in 6 Std. Regen
Mi, 21.10. 20:00 5 l/m2 in 12 Std. Regen
Mi, 21.10. 14:00 4 l/m2 in 6 Std. Regen
Mi, 21.10. 8:00 0.1 l/m2 in 12 Std. Regen
Mi, 21.10. 2:00 0.1 l/m2 in 6 Std. Regen
Di, 20.10. 20:00 0.5 l/m2 in 12 Std. Regen
Di, 20.10. 14:00 0.0 l/m2 in 6 Std. -
Ortszeit Niederschlagsmenge Niederschlagsart
Do, 22.10. 12:00 0.0 l/m2 in 1 Std. -
Do, 22.10. 11:40 keine Meldung -
Do, 22.10. 11:30 0.0 l/m2 in 1 Std. -
Do, 22.10. 11:20 keine Meldung -
Do, 22.10. 11:10 keine Meldung -
Do, 22.10. 11:00 0.0 l/m2 in 1 Std. -
Do, 22.10. 10:50 keine Meldung -
Do, 22.10. 10:30 0.0 l/m2 in 1 Std. -
Do, 22.10. 10:00 0.0 l/m2 in 1 Std. -
Do, 22.10. 9:30 0.0 l/m2 in 1 Std. -
Do, 22.10. 9:00 0.0 l/m2 in 1 Std. -
Do, 22.10. 8:30 0.0 l/m2 in 1 Std. -
Ortszeit Stärke Spitze Richtung
km/h Bft. km/h Grad Sektor
Do, 22.10. 8:00 19 3 72 210° SW
Do, 22.10. 2:00 37 5 80 250° W
Mi, 21.10. 20:00 14 3 43 170° S
Mi, 21.10. 14:00 17 3 30 160° S
Mi, 21.10. 8:00 9 2 30 160° S
Mi, 21.10. 2:00 14 3 36 200° S
Di, 20.10. 20:00 11 2 32 190° S
Di, 20.10. 14:00 13 3 37 160° S
Ortszeit Stärke Spitze Richtung
km/h Bft. km/h Grad Sektor
Do, 22.10. 12:00 22 4 56 220° SW
Do, 22.10. 11:40 20 4 - 220° SW
Do, 22.10. 11:30 26 4 56 220° SW
Do, 22.10. 11:20 26 4 - 220° SW
Do, 22.10. 11:10 29 5 - 220° SW
Do, 22.10. 11:00 28 4 46 210° SW
Do, 22.10. 10:50 28 4 - 210° SW
Do, 22.10. 10:30 20 4 41 220° SW
Do, 22.10. 10:00 19 3 43 220° SW
Do, 22.10. 9:30 22 4 43 220° SW
Do, 22.10. 9:00 20 4 41 220° SW
Do, 22.10. 8:30 18 3 36 220° SW
Ortszeit Untergrenze Bedeckung Gattung
total tief tief mittel hoch
Do, 22.10. 8:00 1050 m 7/8 7/8 - - -
Do, 22.10. 2:00 510 m 8/8 8/8 - - -
Mi, 21.10. 20:00 1800 m 8/8 8/8 - - -
Mi, 21.10. 14:00 240 m 8/8 8/8 - - -
Mi, 21.10. 8:00 420 m 8/8 8/8 - - -
Mi, 21.10. 2:00 510 m 7/8 7/8 - - -
Di, 20.10. 20:00 2100 m 8/8 5/8 - - -
Di, 20.10. 14:00 3600 m 8/8 8/8 - - -
Ortszeit Bedeckungsgrad in Achtel und Wolkenuntergrenze
Do, 22.10. 12:00 2(690m) 3(810m)
Do, 22.10. 11:40 3(690m) 4(810m)
Do, 22.10. 11:30 1(630m) 4(810m)
Do, 22.10. 11:20 1(630m)
Do, 22.10. 11:10 1(540m) 2(690m)
Do, 22.10. 11:00 2(720m)
Do, 22.10. 10:50 keine Wolken
Do, 22.10. 10:30 keine Wolken
Do, 22.10. 10:00 keine Wolken
Do, 22.10. 9:30 keine Wolken
Do, 22.10. 9:00 1(690m)
Do, 22.10. 8:30 5(660m) 7(1050m)
Ortszeit Luftdruck NN (hPa) Tendenz (hPa in 3 Std.)
Do, 22.10. 8:00 1007 + 1,1
Do, 22.10. 2:00 1002 + 4,0
Mi, 21.10. 20:00 998 - 0,8
Mi, 21.10. 14:00 1002 - 2,2
Mi, 21.10. 8:00 1005 - 1,2
Mi, 21.10. 2:00 1007 - 0,6
Di, 20.10. 20:00 1007 - 0,5
Di, 20.10. 14:00 1009 - 1,3
Ortszeit Luftdruck NN (hPa) Tendenz (hPa in 3 Std.)
Do, 22.10. 12:00 1008 + 1,5
Do, 22.10. 11:40 1008 keine Meldung
Do, 22.10. 11:30 1008 + 1,6
Do, 22.10. 11:20 1008 keine Meldung
Do, 22.10. 11:10 1008 keine Meldung
Do, 22.10. 11:00 1008 + 1,8
Do, 22.10. 10:50 1008 keine Meldung
Do, 22.10. 10:30 1008 + 1,9
Do, 22.10. 10:00 1008 + 1,7
Do, 22.10. 9:30 1008 + 1,4
Do, 22.10. 9:00 1007 + 1,0
Do, 22.10. 8:30 1007 + 1,1
Ortszeit Schneehöhe (cm)
Do, 22.10. 8:00 0
Do, 22.10. 2:00 0
Mi, 21.10. 20:00 0
Mi, 21.10. 14:00 0
Mi, 21.10. 8:00 0
Mi, 21.10. 2:00 0
Di, 20.10. 20:00 0
Di, 20.10. 14:00 0
Ortszeit Schneehöhe (cm)
Do, 22.10. 12:00 0
Do, 22.10. 11:40 0
Do, 22.10. 11:30 0
Do, 22.10. 11:20 0
Do, 22.10. 11:10 0
Do, 22.10. 11:00 0
Do, 22.10. 10:50 0
Do, 22.10. 10:30 0
Do, 22.10. 10:00 0
Do, 22.10. 9:30 0
Do, 22.10. 9:00 0
Do, 22.10. 8:30 0
Link zu dieser Seite / Seite empfehlen

Das Wetter in ...